Terminal Aerodrome Forecast
Issued by NWS Sioux Falls, SD

Home | Current Version | Previous Version | Graphics & Text | Print | Product List | Glossary Off
Versions: 1 2 3 4 5 6 7 8 9 10 11 12 13 14 15 16 17 18 19 20 21 22 23 24 25 26 27 28 29 30 31 32 33 34 35 36 37

000
FTUS43 KFSD 011739
TAFSUX
TAF
KSUX 011739Z 0118/0218 11010KT P6SM BKN090
      TEMPO 0118/0119 BKN013
     FM020000 10007KT P6SM SCT050 BKN150
     FM020500 11006KT P6SM BKN050
     FM020900 10005KT P6SM SCT025 BKN100=

USA.gov is the U.S. government's official web portal to all federal, state and local government web resources and services.